createdAt,value
2018-09-04T00:00:12.615Z,111.13
2018-09-04T00:02:39.898Z,103.93
2018-09-04T00:05:07.418Z,111.30
2018-09-04T00:07:34.667Z,88.77
2018-09-04T00:10:02.492Z,93.13
2018-09-04T00:12:29.807Z,76.40
2018-09-04T00:14:57.064Z,74.83
2018-09-04T00:17:24.429Z,75.93
2018-09-04T00:22:41.831Z,73.13
2018-09-04T00:25:09.129Z,59.17
2018-09-04T00:27:36.428Z,50.90
2018-09-04T00:30:04.123Z,50.23
2018-09-04T00:32:31.703Z,54.03
2018-09-04T00:34:59.013Z,55.77
2018-09-04T00:37:26.354Z,59.33
2018-09-04T00:39:53.666Z,60.20
2018-09-04T00:42:20.934Z,63.37
2018-09-04T00:44:48.192Z,62.70
2018-09-04T00:47:15.463Z,68.37
2018-09-04T00:49:42.821Z,57.83
2018-09-04T00:52:10.166Z,57.10
2018-09-04T00:54:37.431Z,65.23
2018-09-04T00:57:04.826Z,66.83
2018-09-04T00:59:32.088Z,74.43
2018-09-04T01:01:59.505Z,76.03
2018-09-04T01:04:27.028Z,76.07
2018-09-04T01:06:54.429Z,82.13
2018-09-04T01:09:22.600Z,81.07
2018-09-04T01:11:50.087Z,81.73
2018-09-04T01:14:17.348Z,84.23
2018-09-04T01:16:44.883Z,77.17
2018-09-04T01:19:12.421Z,79.53
2018-09-04T01:21:39.723Z,65.93
2018-09-04T01:24:08.434Z,69.37
2018-09-04T01:26:35.935Z,71.20
2018-09-04T01:29:03.471Z,63.60
2018-09-04T01:31:30.741Z,67.83
2018-09-04T01:33:58.399Z,69.07
2018-09-04T01:36:25.620Z,72.07
2018-09-04T01:38:52.895Z,70.97
2018-09-04T01:41:20.122Z,64.90
2018-09-04T01:43:47.454Z,66.47
2018-09-04T01:46:14.671Z,65.87
2018-09-04T01:48:41.912Z,64.63
2018-09-04T01:51:09.257Z,67.77
2018-09-04T01:53:36.510Z,56.77
2018-09-04T01:56:03.737Z,61.20
2018-09-04T01:58:30.977Z,60.43
2018-09-04T02:00:58.198Z,56.83
2018-09-04T02:03:25.473Z,63.50
2018-09-04T02:05:52.716Z,56.63
2018-09-04T02:08:19.985Z,59.37
2018-09-04T02:10:47.284Z,53.80
2018-09-04T02:13:14.580Z,52.70
2018-09-04T02:15:41.849Z,55.27
2018-09-04T02:18:09.494Z,46.73
2018-09-04T02:20:36.875Z,47.83
2018-09-04T02:23:04.324Z,48.00
2018-09-04T02:25:31.597Z,48.00
2018-09-04T02:27:58.925Z,60.27
2018-09-04T02:30:26.194Z,48.93
2018-09-04T02:32:53.534Z,42.43
2018-09-04T02:35:20.830Z,46.43
2018-09-04T02:37:48.122Z,47.87
2018-09-04T02:40:15.401Z,49.50
2018-09-04T02:42:42.671Z,49.90
2018-09-04T02:45:09.979Z,47.97
2018-09-04T02:47:37.274Z,55.20
2018-09-04T02:50:04.651Z,58.87
2018-09-04T02:52:31.978Z,67.33
2018-09-04T02:54:59.509Z,63.63
2018-09-04T02:57:26.976Z,61.00
2018-09-04T02:59:54.217Z,60.63
2018-09-04T03:02:21.471Z,69.33
2018-09-04T03:04:48.711Z,60.40
2018-09-04T03:07:15.971Z,71.70
2018-09-04T03:09:43.287Z,82.03
2018-09-04T03:12:10.529Z,84.17
2018-09-04T03:14:37.764Z,81.73
2018-09-04T03:17:05.022Z,86.43
2018-09-04T03:19:33.759Z,78.17
2018-09-04T03:22:02.326Z,92.57
2018-09-04T03:24:30.486Z,89.97
2018-09-04T03:26:57.774Z,97.83
2018-09-04T03:29:25.042Z,94.87
2018-09-04T03:31:52.284Z,87.50
2018-09-04T03:34:19.562Z,95.53
2018-09-04T03:36:46.860Z,84.47
2018-09-04T03:39:14.334Z,91.73
2018-09-04T03:41:41.574Z,98.07
2018-09-04T03:44:08.851Z,75.17
2018-09-04T03:46:36.117Z,74.97
2018-09-04T03:49:03.409Z,77.40
2018-09-04T03:51:30.652Z,69.37
2018-09-04T03:53:57.930Z,79.47
2018-09-04T03:56:25.155Z,91.30
2018-09-04T03:58:52.419Z,90.70
2018-09-04T04:01:19.692Z,84.93
2018-09-04T04:03:46.980Z,80.40
2018-09-04T04:06:14.255Z,88.60
2018-09-04T04:08:43.728Z,96.90
2018-09-04T04:11:11.692Z,101.27
2018-09-04T04:13:38.956Z,92.90
2018-09-04T04:16:06.847Z,78.67
2018-09-04T04:18:34.150Z,78.33
2018-09-04T04:21:01.878Z,74.57
2018-09-04T04:23:29.922Z,76.60
2018-09-04T04:25:58.957Z,72.77
2018-09-04T04:28:26.376Z,81.20
2018-09-04T04:30:53.688Z,70.40
2018-09-04T04:33:21.339Z,77.27
2018-09-04T04:35:48.712Z,87.17
2018-09-04T04:38:16.140Z,99.87
2018-09-04T04:40:43.626Z,86.93
2018-09-04T04:43:11.171Z,89.67
2018-09-04T04:45:38.994Z,84.40
2018-09-04T04:48:06.487Z,97.27
2018-09-04T04:50:34.268Z,98.77
2018-09-04T04:53:01.668Z,107.53
2018-09-04T04:55:29.153Z,101.17
2018-09-04T04:58:08.766Z,92.47
2018-09-04T05:00:36.252Z,94.90
2018-09-04T05:03:03.911Z,98.73
2018-09-04T05:05:31.415Z,98.00
2018-09-04T05:07:58.818Z,110.33
2018-09-04T05:10:27.371Z,97.60
2018-09-04T05:12:55.410Z,93.23
2018-09-04T05:15:22.850Z,89.13
2018-09-04T05:17:50.243Z,90.10
2018-09-04T05:20:22.248Z,94.40
2018-09-04T05:22:49.726Z,88.30
2018-09-04T05:25:18.470Z,81.03
2018-09-04T05:27:45.995Z,79.87
2018-09-04T05:30:13.533Z,79.27
2018-09-04T05:32:45.764Z,88.33
2018-09-04T05:35:14.307Z,80.50
2018-09-04T05:37:42.504Z,90.03
2018-09-04T05:40:10.043Z,77.83
2018-09-04T05:42:43.792Z,71.37
2018-09-04T05:45:11.703Z,77.30
2018-09-04T05:47:40.124Z,67.33
2018-09-04T05:50:08.600Z,69.77
2018-09-04T05:52:36.357Z,66.63
2018-09-04T05:55:04.115Z,80.47
2018-09-04T05:57:32.196Z,72.67
2018-09-04T06:00:00.480Z,63.10
2018-09-04T06:02:29.633Z,65.77
2018-09-04T06:04:57.037Z,66.70
2018-09-04T06:07:24.539Z,60.63
2018-09-04T06:09:52.048Z,62.43
2018-09-04T06:12:19.434Z,66.00
2018-09-04T06:14:46.945Z,60.73
2018-09-04T06:17:14.475Z,61.20
2018-09-04T06:19:42.007Z,60.70
2018-09-04T06:22:09.455Z,63.03
2018-09-04T06:24:36.888Z,53.90
2018-09-04T06:27:04.851Z,56.63
2018-09-04T06:29:32.533Z,55.03
2018-09-04T06:31:59.908Z,47.50
2018-09-04T06:34:27.336Z,53.93
2018-09-04T06:36:54.811Z,48.20
2018-09-04T06:39:22.362Z,51.30
2018-09-04T06:41:49.855Z,58.70
2018-09-04T06:44:17.366Z,59.37
2018-09-04T06:46:44.802Z,50.47
2018-09-04T06:49:13.993Z,49.53
2018-09-04T06:51:42.845Z,56.33
2018-09-04T06:54:10.369Z,54.07
2018-09-04T06:56:39.912Z,52.90
2018-09-04T06:59:08.698Z,51.63
2018-09-04T07:01:36.800Z,45.37
2018-09-04T07:04:04.564Z,42.20
2018-09-04T07:06:35.862Z,44.73
2018-09-04T07:09:04.212Z,47.10
2018-09-04T07:11:31.560Z,47.13
2018-09-04T07:13:58.891Z,51.23
2018-09-04T07:16:26.286Z,44.23
2018-09-04T07:18:53.725Z,44.97
2018-09-04T07:21:21.199Z,43.33
2018-09-04T07:23:49.027Z,47.00
2018-09-04T07:26:17.391Z,50.17
2018-09-04T07:28:44.884Z,51.33
2018-09-04T07:31:13.013Z,50.70
2018-09-04T07:33:40.392Z,48.02
2018-09-04T07:36:07.856Z,44.20
2018-09-04T07:38:35.296Z,45.03
2018-09-04T07:41:02.827Z,46.88
2018-09-04T07:43:30.449Z,47.25
2018-09-04T07:45:57.872Z,47.45
2018-09-04T07:48:25.919Z,48.78
2018-09-04T07:50:53.356Z,46.88
2018-09-04T07:53:20.740Z,43.58
2018-09-04T07:55:48.141Z,43.38
2018-09-04T07:58:16.409Z,42.95
2018-09-04T08:00:43.936Z,41.25
2018-09-04T08:03:11.333Z,40.10
2018-09-04T08:05:54.304Z,40.78
2018-09-04T08:08:36.969Z,36.98
2018-09-04T08:11:20.548Z,40.65
2018-09-04T08:13:55.013Z,38.42
2018-09-04T08:16:22.488Z,41.53
2018-09-04T08:18:50.620Z,40.12
2018-09-04T08:21:18.098Z,41.70
2018-09-04T08:23:45.481Z,40.70
2018-09-04T08:26:13.514Z,37.65
2018-09-04T08:28:42.722Z,44.23
2018-09-04T08:31:11.836Z,35.68
2018-09-04T08:33:39.737Z,39.50
2018-09-04T08:36:09.125Z,38.40
2018-09-04T08:38:42.118Z,40.48
2018-09-04T08:41:09.674Z,40.12
2018-09-04T08:43:37.264Z,38.78
2018-09-04T08:46:04.955Z,37.00
2018-09-04T08:48:33.001Z,42.80
2018-09-04T08:51:10.794Z,38.90
2018-09-04T08:53:49.919Z,40.58
2018-09-04T08:56:28.626Z,38.95
2018-09-04T08:58:57.084Z,39.98
2018-09-04T09:01:24.530Z,40.00
2018-09-04T09:03:52.290Z,41.15
2018-09-04T09:06:19.534Z,47.75
2018-09-04T09:08:47.463Z,38.80
2018-09-04T09:11:15.185Z,38.02
2018-09-04T09:13:42.654Z,39.30
2018-09-04T09:16:13.549Z,37.78
2018-09-04T09:18:40.957Z,37.05
2018-09-04T09:21:08.917Z,38.63
2018-09-04T09:23:36.331Z,38.42
2018-09-04T09:26:03.863Z,36.93
2018-09-04T09:28:31.445Z,36.40
2018-09-04T09:30:58.805Z,37.23
2018-09-04T09:33:26.258Z,34.90
2018-09-04T09:35:53.642Z,37.20
2018-09-04T09:38:21.140Z,35.52
2018-09-04T09:40:49.194Z,36.50
2018-09-04T09:43:17.178Z,33.13
2018-09-04T09:45:44.511Z,32.17
2018-09-04T09:48:12.102Z,33.50
2018-09-04T09:50:40.478Z,33.15
2018-09-04T09:53:08.019Z,33.40
2018-09-04T09:55:35.304Z,34.43
2018-09-04T09:58:02.769Z,31.07
2018-09-04T10:00:32.976Z,33.08
2018-09-04T10:03:09.685Z,31.60
2018-09-04T10:05:37.397Z,35.20
2018-09-04T10:08:05.349Z,30.02
2018-09-04T10:10:32.814Z,30.62
2018-09-04T10:13:00.300Z,31.45
2018-09-04T10:15:28.949Z,31.55
2018-09-04T10:17:56.419Z,28.32
2018-09-04T10:20:23.879Z,32.00
2018-09-04T10:22:52.869Z,29.40
2018-09-04T10:25:20.231Z,29.77
2018-09-04T10:27:48.728Z,33.35
2018-09-04T10:30:17.936Z,31.77
2018-09-04T10:32:52.465Z,31.12
2018-09-04T10:35:20.931Z,29.35
2018-09-04T10:37:48.588Z,29.05
2018-09-04T10:40:21.420Z,27.48
2018-09-04T10:42:49.379Z,27.52
2018-09-04T10:45:22.393Z,28.52
2018-09-04T10:47:52.677Z,23.92
2018-09-04T10:50:21.674Z,26.37
2018-09-04T10:52:51.682Z,27.65
2018-09-04T10:55:19.236Z,27.30
2018-09-04T10:57:46.879Z,25.27
2018-09-04T11:00:15.890Z,26.05
2018-09-04T11:02:43.339Z,24.43
2018-09-04T11:05:10.774Z,26.57
2018-09-04T11:07:38.260Z,24.25
2018-09-04T11:10:06.189Z,25.37
2018-09-04T11:12:33.705Z,26.80
2018-09-04T11:15:01.282Z,23.80
2018-09-04T11:17:28.992Z,21.27
2018-09-04T11:20:03.161Z,21.27
2018-09-04T11:22:30.530Z,21.70
2018-09-04T11:24:58.228Z,29.67
2018-09-04T11:27:26.228Z,25.68
2018-09-04T11:29:53.953Z,21.15
2018-09-04T11:32:22.261Z,20.92
2018-09-04T11:34:49.943Z,22.67
2018-09-04T11:37:17.671Z,20.48
2018-09-04T11:39:45.150Z,20.02
2018-09-04T11:42:13.684Z,23.18
2018-09-04T11:44:42.851Z,19.52
2018-09-04T11:47:12.754Z,23.90
2018-09-04T11:49:40.887Z,21.65
2018-09-04T11:52:09.252Z,27.93
2018-09-04T11:54:36.947Z,20.52
2018-09-04T11:57:05.042Z,22.80
2018-09-04T11:59:37.863Z,19.52
2018-09-04T12:02:06.818Z,19.92
2018-09-04T12:04:34.666Z,19.02
2018-09-04T12:07:02.374Z,19.25
2018-09-04T12:09:29.922Z,21.85
2018-09-04T12:11:57.565Z,20.60
2018-09-04T12:14:30.751Z,19.90
2018-09-04T12:16:58.257Z,18.37
2018-09-04T12:19:27.330Z,17.17
2018-09-04T12:21:54.920Z,18.37
2018-09-04T12:24:22.518Z,18.73
2018-09-04T12:26:49.895Z,18.42
2018-09-04T12:29:17.359Z,17.90
2018-09-04T12:31:45.588Z,15.93
2018-09-04T12:34:13.016Z,16.70
2018-09-04T12:36:40.651Z,17.45
2018-09-04T12:39:08.211Z,16.17
2018-09-04T12:41:37.793Z,17.73
2018-09-04T12:44:05.336Z,19.98
2018-09-04T12:46:34.737Z,18.65
2018-09-04T12:49:02.512Z,16.57
2018-09-04T12:51:30.082Z,17.67
2018-09-04T12:53:57.608Z,16.15
2018-09-04T12:56:25.114Z,16.30
2018-09-04T12:58:52.669Z,16.37
2018-09-04T13:01:21.159Z,16.55
2018-09-04T13:03:48.528Z,15.83
2018-09-04T13:06:16.139Z,25.02
2018-09-04T13:08:43.583Z,17.45
2018-09-04T13:11:11.358Z,18.15
2018-09-04T13:13:40.564Z,18.62
2018-09-04T13:16:09.601Z,16.90
2018-09-04T13:18:38.497Z,15.63
2018-09-04T13:21:06.170Z,20.68
2018-09-04T13:23:34.794Z,22.22
2018-09-04T13:26:02.746Z,14.95
2018-09-04T13:28:31.084Z,14.75
2018-09-04T13:30:59.251Z,13.03
2018-09-04T13:33:27.528Z,14.05
2018-09-04T13:35:55.580Z,11.28
2018-09-04T13:38:26.191Z,14.10
2018-09-04T13:40:59.365Z,22.05
2018-09-04T13:43:26.814Z,13.43
2018-09-04T13:45:54.328Z,12.37
2018-09-04T13:48:27.808Z,11.18
2018-09-04T13:50:55.538Z,12.78
2018-09-04T13:53:23.882Z,14.45
2018-09-04T13:55:51.445Z,12.43
2018-09-04T13:58:19.336Z,11.60
2018-09-04T14:00:46.877Z,10.95
2018-09-04T14:03:14.285Z,10.85
2018-09-04T14:05:41.726Z,11.38
2018-09-04T14:08:09.827Z,11.35
2018-09-04T14:10:37.915Z,15.75
2018-09-04T14:13:05.635Z,12.75
2018-09-04T14:15:33.698Z,12.15
2018-09-04T14:18:01.136Z,12.23
2018-09-04T14:20:28.612Z,13.75
2018-09-04T14:22:56.799Z,11.80
2018-09-04T14:25:24.367Z,12.65
2018-09-04T14:27:52.135Z,13.32
2018-09-04T14:30:19.814Z,12.60
2018-09-04T14:32:47.893Z,14.53
2018-09-04T14:35:15.952Z,14.10
2018-09-04T14:37:43.375Z,14.53
2018-09-04T14:40:10.941Z,16.67
2018-09-04T14:42:39.022Z,11.73
2018-09-04T14:45:07.652Z,13.68
2018-09-04T14:47:37.316Z,12.60
2018-09-04T14:50:06.107Z,12.28
2018-09-04T14:52:34.401Z,13.58
2018-09-04T14:55:01.900Z,16.10
2018-09-04T14:57:32.268Z,14.35
2018-09-04T14:59:59.792Z,11.73
2018-09-04T15:02:38.873Z,13.03
2018-09-04T15:05:06.847Z,11.18
2018-09-04T15:07:36.664Z,11.55
2018-09-04T15:10:08.635Z,12.18
2018-09-04T15:12:41.003Z,13.48
2018-09-04T15:19:03.556Z,14.78
2018-09-04T15:21:36.224Z,12.30
2018-09-04T15:24:06.413Z,11.38
2018-09-04T15:26:34.024Z,13.68
2018-09-04T15:29:02.824Z,9.50
2018-09-04T15:31:30.419Z,12.00
2018-09-04T15:33:57.858Z,10.28
2018-09-04T15:36:25.425Z,11.05
2018-09-04T15:38:53.528Z,12.37
2018-09-04T15:41:21.679Z,12.88
2018-09-04T15:43:49.105Z,12.60
2018-09-04T15:46:16.630Z,12.25
2018-09-04T15:49:51.234Z,10.82
2018-09-04T15:52:18.729Z,11.45
2018-09-04T15:54:46.150Z,11.83
2018-09-04T15:57:14.127Z,13.98
2018-09-04T15:59:41.490Z,17.65
2018-09-04T16:02:09.054Z,11.88
2018-09-04T16:04:36.949Z,11.05
2018-09-04T16:07:04.394Z,13.10
2018-09-04T16:09:31.884Z,12.15
2018-09-04T16:11:59.205Z,11.30
2018-09-04T16:14:26.675Z,11.53
2018-09-04T16:16:54.937Z,18.40
2018-09-04T16:19:22.535Z,12.10
2018-09-04T16:21:50.893Z,11.78
2018-09-04T16:24:18.235Z,12.47
2018-09-04T16:29:39.147Z,15.18
2018-09-04T16:35:22.978Z,10.75
2018-09-04T16:38:01.410Z,11.08
2018-09-04T16:40:39.443Z,10.72
2018-09-04T16:43:10.599Z,10.88
2018-09-04T16:45:40.705Z,10.20
2018-09-04T16:48:08.169Z,11.45
2018-09-04T16:50:42.889Z,10.43
2018-09-04T16:55:54.935Z,10.60
2018-09-04T16:58:22.707Z,10.88
2018-09-04T17:01:02.505Z,12.63
2018-09-04T17:03:40.970Z,10.10
2018-09-04T17:06:17.191Z,12.90
2018-09-04T17:08:44.908Z,10.88
2018-09-04T17:13:50.261Z,16.93
2018-09-04T17:16:19.636Z,12.10
2018-09-04T17:18:47.990Z,12.43
2018-09-04T17:21:21.443Z,10.18
2018-09-04T17:23:49.227Z,11.38
2018-09-04T17:26:17.944Z,10.98
2018-09-04T17:28:47.716Z,10.85
2018-09-04T17:31:15.183Z,12.07
2018-09-04T17:33:45.384Z,11.90
2018-09-04T17:36:13.165Z,11.00
2018-09-04T17:38:40.636Z,12.15
2018-09-04T17:41:15.289Z,12.07
2018-09-04T17:43:46.155Z,13.15
2018-09-04T17:46:14.389Z,13.30
2018-09-04T17:48:42.920Z,10.60
2018-09-04T17:51:12.005Z,11.63
2018-09-04T17:53:41.829Z,11.38
2018-09-04T17:56:10.132Z,12.95
2018-09-04T17:58:39.267Z,13.10
2018-09-04T18:01:07.854Z,15.10
2018-09-04T18:03:35.666Z,15.25
2018-09-04T18:06:04.031Z,10.70
2018-09-04T18:08:31.663Z,10.80
2018-09-04T18:11:03.676Z,13.60
2018-09-04T18:13:31.168Z,11.90
2018-09-04T18:15:58.662Z,10.98
2018-09-04T18:18:26.050Z,11.83
2018-09-04T18:20:53.650Z,12.80
2018-09-04T18:23:21.380Z,11.27
2018-09-04T18:25:48.841Z,12.33
2018-09-04T18:28:16.340Z,11.67
2018-09-04T18:30:44.851Z,10.43
2018-09-04T18:33:12.434Z,12.33
2018-09-04T18:35:41.478Z,11.33
2018-09-04T18:38:11.418Z,14.83
2018-09-04T18:40:40.151Z,12.33
2018-09-04T18:43:08.758Z,17.80
2018-09-04T18:45:49.554Z,12.63
2018-09-04T18:48:19.070Z,13.23
2018-09-04T18:50:52.735Z,12.53
2018-09-04T18:53:20.183Z,12.73
2018-09-04T18:55:51.085Z,10.57
2018-09-04T18:58:19.028Z,10.13
2018-09-04T19:00:46.901Z,10.90
2018-09-04T19:03:15.532Z,10.80
2018-09-04T19:05:47.058Z,11.40
2018-09-04T19:08:16.627Z,13.33
2018-09-04T19:10:44.365Z,11.13
2018-09-04T19:13:11.890Z,10.90
2018-09-04T19:15:41.858Z,10.80
2018-09-04T19:18:09.998Z,13.30
2018-09-04T19:20:40.966Z,10.67
2018-09-04T19:23:10.420Z,12.03
2018-09-04T19:25:39.602Z,10.00
2018-09-04T19:28:08.561Z,9.43
2018-09-04T19:30:36.416Z,10.57
2018-09-04T19:33:05.050Z,11.50
2018-09-04T19:35:34.779Z,8.50
2018-09-04T19:38:02.176Z,9.57
2018-09-04T19:40:29.510Z,10.37
2018-09-04T19:42:56.956Z,9.77
2018-09-04T19:45:24.346Z,9.70
2018-09-04T19:47:51.772Z,9.97
2018-09-04T19:50:20.277Z,8.63
2018-09-04T19:52:47.601Z,8.77
2018-09-04T19:55:15.296Z,10.20
2018-09-04T19:57:42.716Z,8.80
2018-09-04T20:00:10.579Z,10.37
2018-09-04T20:02:38.490Z,9.17
2018-09-04T20:05:07.253Z,9.73
2018-09-04T20:07:34.609Z,7.83
2018-09-04T20:10:02.832Z,7.20
2018-09-04T20:12:30.114Z,10.20
2018-09-04T20:14:57.470Z,8.17
2018-09-04T20:17:24.912Z,8.00
2018-09-04T20:19:52.309Z,9.73
2018-09-04T20:22:19.669Z,6.50
2018-09-04T20:24:46.981Z,8.53
2018-09-04T20:27:14.435Z,6.77
2018-09-04T20:29:41.787Z,11.23
2018-09-04T20:32:09.007Z,8.03
2018-09-04T20:34:36.530Z,7.30
2018-09-04T20:37:03.865Z,5.63
2018-09-04T20:39:31.132Z,8.97
2018-09-04T20:41:58.441Z,7.57
2018-09-04T20:44:25.745Z,6.97
2018-09-04T20:46:53.040Z,10.73
2018-09-04T20:49:20.313Z,7.53
2018-09-04T20:51:48.381Z,6.83
2018-09-04T20:54:15.751Z,6.10
2018-09-04T20:56:50.070Z,8.07
2018-09-04T20:59:28.865Z,5.50
2018-09-04T21:02:07.655Z,5.20
2018-09-04T21:04:46.330Z,9.10
2018-09-04T21:09:25.077Z,6.43
2018-09-04T21:11:52.360Z,8.30
2018-09-04T21:14:19.706Z,6.67
2018-09-04T21:16:47.016Z,8.17
2018-09-04T21:19:14.341Z,6.27
2018-09-04T21:21:41.670Z,6.90
2018-09-04T21:24:08.968Z,5.23
2018-09-04T21:26:36.230Z,5.83
2018-09-04T21:29:03.701Z,6.93
2018-09-04T21:31:31.081Z,5.00
2018-09-04T21:33:58.285Z,7.43
2018-09-04T21:36:25.570Z,5.27
2018-09-04T21:38:52.838Z,7.37
2018-09-04T21:41:20.100Z,6.20
2018-09-04T21:43:47.407Z,7.83
2018-09-04T21:46:14.639Z,8.77
2018-09-04T21:48:41.861Z,6.53
2018-09-04T21:51:09.464Z,8.27
2018-09-04T21:53:36.765Z,8.03
2018-09-04T21:56:04.311Z,7.97
2018-09-04T21:58:31.542Z,8.87
2018-09-04T22:00:58.825Z,7.07
2018-09-04T22:03:35.086Z,6.87
2018-09-04T22:06:02.358Z,7.23
2018-09-04T22:08:30.448Z,6.30
2018-09-04T22:10:57.708Z,5.23
2018-09-04T22:13:25.034Z,9.83
2018-09-04T22:15:52.315Z,4.77
2018-09-04T22:18:19.585Z,5.87
2018-09-04T22:20:46.978Z,5.73
2018-09-04T22:23:14.228Z,4.73
2018-09-04T22:25:41.482Z,8.67
2018-09-04T22:28:08.906Z,6.37
2018-09-04T22:30:36.158Z,6.33
2018-09-04T22:33:03.442Z,4.80
2018-09-04T22:35:30.708Z,5.60
2018-09-04T22:37:59.003Z,6.77
2018-09-04T22:40:26.279Z,5.70
2018-09-04T22:42:53.542Z,6.10
2018-09-04T22:45:20.935Z,5.57
2018-09-04T22:47:48.256Z,9.50
2018-09-04T22:50:21.226Z,6.57
2018-09-04T22:52:48.543Z,6.00
2018-09-04T22:55:15.800Z,8.40
2018-09-04T22:57:43.907Z,7.93
2018-09-04T23:00:12.158Z,6.37
2018-09-04T23:02:40.288Z,5.30
2018-09-04T23:05:07.590Z,7.63
2018-09-04T23:07:34.872Z,9.83
2018-09-04T23:10:02.137Z,6.07
2018-09-04T23:12:29.409Z,7.10
2018-09-04T23:14:56.672Z,5.80
2018-09-04T23:17:23.972Z,5.77
2018-09-04T23:19:51.257Z,6.43
2018-09-04T23:22:18.517Z,8.57
2018-09-04T23:24:45.810Z,11.87
2018-09-04T23:27:13.103Z,7.73
2018-09-04T23:29:40.384Z,6.10
2018-09-04T23:32:07.648Z,8.70
2018-09-04T23:34:35.399Z,5.00
2018-09-04T23:37:02.650Z,7.17
2018-09-04T23:39:30.037Z,8.20
2018-09-04T23:41:57.273Z,6.23
2018-09-04T23:44:24.573Z,6.17
2018-09-04T23:46:51.928Z,8.87
2018-09-04T23:49:19.234Z,5.43
2018-09-04T23:51:46.503Z,5.17
2018-09-04T23:54:13.776Z,6.67
2018-09-04T23:56:41.015Z,4.97
2018-09-04T23:59:08.362Z,5.97
